createdAt,value
2017-09-24T00:00:30.624Z,85.03
2017-09-24T00:01:30.521Z,85.13
2017-09-24T00:02:30.515Z,85.41
2017-09-24T00:03:30.201Z,85.61
2017-09-24T00:04:30.197Z,85.71
2017-09-24T00:05:30.652Z,85.61
2017-09-24T00:06:30.495Z,85.51
2017-09-24T00:07:30.493Z,85.99
2017-09-24T00:08:30.172Z,86.04
2017-09-24T00:09:30.475Z,86.23
2017-09-24T00:10:30.577Z,86.04
2017-09-24T00:11:30.158Z,85.94
2017-09-24T00:12:30.152Z,85.94
2017-09-24T00:13:30.147Z,86.14
2017-09-24T00:14:30.454Z,85.94
2017-09-24T00:15:30.597Z,86.14
2017-09-24T00:16:30.131Z,85.99
2017-09-24T00:17:30.129Z,85.85
2017-09-24T00:18:30.121Z,85.85
2017-09-24T00:19:30.113Z,85.99
2017-09-24T00:20:30.110Z,85.85
2017-09-24T00:21:30.417Z,85.75
2017-09-24T00:22:30.100Z,86.04
2017-09-24T00:23:30.506Z,85.99
2017-09-24T00:24:30.498Z,86.08
2017-09-24T00:25:30.395Z,86.14
2017-09-24T00:26:30.079Z,86.43
2017-09-24T00:27:30.074Z,86.71
2017-09-24T00:28:30.381Z,86.57
2017-09-24T00:29:30.371Z,86.43
2017-09-24T00:30:30.473Z,86.33
2017-09-24T00:31:30.054Z,86.33
2017-09-24T00:32:30.508Z,86.23
2017-09-24T00:33:30.040Z,86.61
2017-09-24T00:34:30.348Z,86.71
2017-09-24T00:35:30.032Z,86.61
2017-09-24T00:36:30.027Z,86.71
2017-09-24T00:37:30.433Z,86.8
2017-09-24T00:38:30.328Z,86.9
2017-09-24T00:39:30.319Z,86.61
2017-09-24T00:40:30.420Z,86.43
2017-09-24T00:41:30.001Z,87.09
2017-09-24T00:42:30.304Z,87.86
2017-09-24T00:43:30.399Z,87.66
2017-09-24T00:44:29.983Z,87.76
2017-09-24T00:45:29.979Z,87.38
2017-09-24T00:46:30.282Z,87.29
2017-09-24T00:47:30.431Z,87.19
2017-09-24T00:48:30.274Z,87.86
2017-09-24T00:49:29.960Z,87.86
2017-09-24T00:50:30.265Z,87.66
2017-09-24T00:51:29.946Z,87.76
2017-09-24T00:52:29.942Z,87.57
2017-09-24T00:53:29.936Z,87.48
2017-09-24T00:54:30.239Z,87.86
2017-09-24T00:55:30.240Z,87.86
2017-09-24T00:56:30.234Z,87.57
2017-09-24T00:57:30.270Z,87.57
2017-09-24T00:58:29.912Z,87.57
2017-09-24T00:59:30.214Z,87.76
2017-09-24T01:00:29.899Z,87.86
2017-09-24T01:01:29.898Z,87.57
2017-09-24T01:02:30.200Z,87.76
2017-09-24T01:03:29.883Z,87.86
2017-09-24T01:04:30.289Z,88.34
2017-09-24T01:05:29.875Z,88.24
2017-09-24T01:06:29.867Z,88.34
2017-09-24T01:07:29.865Z,87.95
2017-09-24T01:08:30.166Z,87.86
2017-09-24T01:09:29.852Z,87.86
2017-09-24T01:10:29.848Z,87.66
2017-09-24T01:11:30.154Z,87.76
2017-09-24T01:12:29.837Z,87.86
2017-09-24T01:13:30.243Z,88.05
2017-09-24T01:14:30.135Z,87.66
2017-09-24T01:15:29.820Z,87.76
2017-09-24T01:16:30.129Z,87.57
2017-09-24T01:17:29.811Z,87.82
2017-09-24T01:18:29.905Z,87.76
2017-09-24T01:19:30.260Z,87.72
2017-09-24T01:20:29.794Z,87.86
2017-09-24T01:21:30.203Z,88.48
2017-09-24T01:22:29.783Z,87.82
2017-09-24T01:23:29.779Z,87.82
2017-09-24T01:24:30.284Z,87.62
2017-09-24T01:25:29.767Z,88.48
2017-09-24T01:26:29.763Z,88.01
2017-09-24T01:27:30.066Z,88.39
2017-09-24T01:28:30.062Z,88.48
2017-09-24T01:29:30.158Z,87.91
2017-09-24T01:30:30.049Z,88.2
2017-09-24T01:31:30.046Z,88.01
2017-09-24T01:32:30.191Z,88.29
2017-09-24T01:33:29.724Z,88.29
2017-09-24T01:34:29.725Z,88.29
2017-09-24T01:35:29.715Z,88.29
2017-09-24T01:36:29.709Z,88.58
2017-09-24T01:37:29.803Z,88.48
2017-09-24T01:38:29.702Z,87.91
2017-09-24T01:39:30.004Z,87.82
2017-09-24T01:40:29.788Z,88.1
2017-09-24T01:41:29.683Z,88.2
2017-09-24T01:42:30.088Z,88.29
2017-09-24T01:43:29.671Z,88.39
2017-09-24T01:44:29.980Z,88.39
2017-09-24T01:45:29.661Z,88.48
2017-09-24T01:46:29.963Z,88.29
2017-09-24T01:47:30.067Z,88.39
2017-09-24T01:48:29.953Z,88.1
2017-09-24T01:49:29.950Z,88.2
2017-09-24T01:50:29.943Z,88.29
2017-09-24T01:51:29.942Z,88.01
2017-09-24T01:52:29.723Z,88.34
2017-09-24T01:53:30.079Z,88.15
2017-09-24T01:54:29.922Z,88.06
2017-09-24T01:55:29.607Z,88.54
2017-09-24T01:56:30.113Z,88.63
2017-09-24T01:57:30.008Z,88.34
2017-09-24T01:58:29.901Z,88.44
2017-09-24T01:59:29.586Z,87.96
2017-09-24T02:00:29.891Z,88.15
2017-09-24T02:01:29.575Z,87.96
2017-09-24T02:02:29.571Z,88.29
2017-09-24T02:03:29.874Z,88.25
2017-09-24T02:04:29.865Z,87.87
2017-09-24T02:05:29.554Z,88.39
2017-09-24T02:06:29.859Z,88.29
2017-09-24T02:07:29.543Z,88.01
2017-09-24T02:08:29.537Z,87.82
2017-09-24T02:09:29.532Z,87.53
2017-09-24T02:10:29.675Z,87.53
2017-09-24T02:11:29.522Z,87.68
2017-09-24T02:12:29.825Z,87.58
2017-09-24T02:13:29.973Z,87.68
2017-09-24T02:14:29.504Z,87.01
2017-09-24T02:15:29.499Z,87.48
2017-09-24T02:16:29.807Z,87.77
2017-09-24T02:17:29.898Z,87.77
2017-09-24T02:18:29.483Z,87.58
2017-09-24T02:19:29.476Z,87.77
2017-09-24T02:20:29.881Z,87.48
2017-09-24T02:21:29.778Z,87.87
2017-09-24T02:22:29.460Z,87.87
2017-09-24T02:23:29.456Z,88.54
2017-09-24T02:24:29.759Z,88.15
2017-09-24T02:25:29.446Z,87.96
2017-09-24T02:26:29.749Z,88.06
2017-09-24T02:27:29.434Z,87.87
2017-09-24T02:28:29.429Z,88.25
2017-09-24T02:29:29.732Z,88.34
2017-09-24T02:30:29.741Z,88.15
2017-09-24T02:31:29.412Z,88.15
2017-09-24T02:32:29.718Z,88.15
2017-09-24T02:33:29.403Z,88.15
2017-09-24T02:34:29.498Z,88.63
2017-09-24T02:35:29.391Z,87.77
2017-09-24T02:36:29.700Z,87.54
2017-09-24T02:37:29.380Z,87.87
2017-09-24T02:38:29.684Z,88.2
2017-09-24T02:39:29.685Z,88.25
2017-09-24T02:40:29.784Z,87.77
2017-09-24T02:41:29.668Z,88.06
2017-09-24T02:42:29.662Z,88.15
2017-09-24T02:43:29.349Z,88.15
2017-09-24T02:44:29.660Z,88.15
2017-09-24T02:45:29.647Z,87.48
2017-09-24T02:46:29.643Z,87.73
2017-09-24T02:47:29.327Z,87.73
2017-09-24T02:48:29.633Z,87.06
2017-09-24T02:49:29.314Z,87.25
2017-09-24T02:50:29.824Z,87.25
2017-09-24T02:51:29.614Z,87.35
2017-09-24T02:52:29.300Z,87.73
2017-09-24T02:53:29.395Z,87.44
2017-09-24T02:54:29.599Z,87.44
2017-09-24T02:55:29.594Z,87.06
2017-09-24T02:56:29.587Z,87.35
2017-09-24T02:57:29.274Z,87.44
2017-09-24T02:58:29.674Z,87.44
2017-09-24T02:59:29.577Z,87.06
2017-09-24T03:00:29.563Z,87.15
2017-09-24T03:01:29.560Z,87.44
2017-09-24T03:02:29.654Z,87.35
2017-09-24T03:03:29.547Z,87.25
2017-09-24T03:04:29.543Z,87.35
2017-09-24T03:05:29.537Z,87.54
2017-09-24T03:06:29.221Z,87.63
2017-09-24T03:07:29.528Z,87.35
2017-09-24T03:08:29.312Z,87.44
2017-09-24T03:09:29.518Z,87.35
2017-09-24T03:10:29.712Z,87.54
2017-09-24T03:11:29.297Z,87.35
2017-09-24T03:12:29.194Z,87.73
2017-09-24T03:13:29.288Z,87.35
2017-09-24T03:14:29.490Z,87.54
2017-09-24T03:15:29.585Z,87.73
2017-09-24T03:16:29.482Z,87.35
2017-09-24T03:17:29.480Z,87.35
2017-09-24T03:18:29.566Z,87.25
2017-09-24T03:19:29.302Z,87.25
2017-09-24T03:20:29.455Z,87.44
2017-09-24T03:21:29.140Z,87.35
2017-09-24T03:22:29.442Z,87.54
2017-09-24T03:23:29.131Z,87.54
2017-09-24T03:24:29.126Z,87.25
2017-09-24T03:25:29.430Z,87.25
2017-09-24T03:26:29.263Z,87.44
2017-09-24T03:27:29.423Z,87.06
2017-09-24T03:28:29.411Z,87.35
2017-09-24T03:29:29.095Z,87.63
2017-09-24T03:30:29.405Z,88.4
2017-09-24T03:31:29.396Z,88.01
2017-09-24T03:32:29.391Z,87.63
2017-09-24T03:33:29.075Z,87.73
2017-09-24T03:34:29.536Z,87.54
2017-09-24T03:35:29.163Z,87.73
2017-09-24T03:36:29.366Z,88.11
2017-09-24T03:37:29.363Z,88.26
2017-09-24T03:38:29.461Z,88.01
2017-09-24T03:39:29.347Z,88.16
2017-09-24T03:40:29.344Z,88.16
2017-09-24T03:41:29.031Z,87.78
2017-09-24T03:42:29.433Z,87.68
2017-09-24T03:43:29.333Z,87.87
2017-09-24T03:44:29.433Z,88.07
2017-09-24T03:45:29.008Z,88.07
2017-09-24T03:46:29.154Z,88.73
2017-09-24T03:47:28.997Z,87.92
2017-09-24T03:48:28.991Z,88.3
2017-09-24T03:49:29.297Z,87.92
2017-09-24T03:50:28.979Z,88.11
2017-09-24T03:51:29.284Z,88.4
2017-09-24T03:52:29.308Z,88.49
2017-09-24T03:53:29.374Z,88.01
2017-09-24T03:54:28.958Z,87.73
2017-09-24T03:55:29.261Z,88.4
2017-09-24T03:56:29.258Z,88.59
2017-09-24T03:57:28.943Z,88.68
2017-09-24T03:58:29.246Z,88.49
2017-09-24T03:59:29.242Z,88.78
2017-09-24T04:00:29.232Z,88.68
2017-09-24T04:01:29.236Z,88.68
2017-09-24T04:02:28.914Z,87.87
2017-09-24T04:03:29.109Z,87.87
2017-09-24T04:04:28.902Z,88.54
2017-09-24T04:05:29.207Z,88.35
2017-09-24T04:06:28.892Z,88.35
2017-09-24T04:07:28.885Z,88.64
2017-09-24T04:08:28.882Z,88.73
2017-09-24T04:09:28.974Z,88.35
2017-09-24T04:10:28.871Z,88.64
2017-09-24T04:11:29.174Z,88.35
2017-09-24T04:12:28.859Z,88.35
2017-09-24T04:13:28.853Z,88.54
2017-09-24T04:14:28.848Z,88.26
2017-09-24T04:15:28.844Z,88.45
2017-09-24T04:16:29.147Z,88.16
2017-09-24T04:17:28.832Z,88.45
2017-09-24T04:18:28.824Z,88.45
2017-09-24T04:19:28.818Z,88.73
2017-09-24T04:20:29.225Z,88.35
2017-09-24T04:21:29.122Z,88.54
2017-09-24T04:22:29.112Z,88.83
2017-09-24T04:23:28.797Z,88.73
2017-09-24T04:24:28.790Z,88.45
2017-09-24T04:25:29.097Z,88.73
2017-09-24T04:26:29.191Z,89.4
2017-09-24T04:27:29.087Z,89.21
2017-09-24T04:28:28.770Z,89.31
2017-09-24T04:29:28.762Z,89.31
2017-09-24T04:30:28.759Z,89.12
2017-09-24T04:31:29.221Z,88.83
2017-09-24T04:32:28.749Z,88.92
2017-09-24T04:33:29.051Z,88.92
2017-09-24T04:34:29.047Z,89.02
2017-09-24T04:35:28.730Z,89.21
2017-09-24T04:36:29.033Z,89.02
2017-09-24T04:37:29.133Z,89.12
2017-09-24T04:38:28.714Z,88.92
2017-09-24T04:39:29.019Z,89.21
2017-09-24T04:40:29.012Z,89.59
2017-09-24T04:41:28.797Z,89.59
2017-09-24T04:42:29.102Z,88.83
2017-09-24T04:43:29.146Z,89.12
2017-09-24T04:44:28.682Z,88.83
2017-09-24T04:45:29.008Z,89.12
2017-09-24T04:46:28.669Z,89.16
2017-09-24T04:47:28.664Z,88.97
2017-09-24T04:48:28.657Z,88.87
2017-09-24T04:49:28.978Z,89.12
2017-09-24T04:50:28.959Z,88.83
2017-09-24T04:51:28.953Z,88.54
2017-09-24T04:52:28.635Z,88.83
2017-09-24T04:53:28.939Z,88.64
2017-09-24T04:54:28.624Z,88.54
2017-09-24T04:55:28.930Z,89.02
2017-09-24T04:56:28.612Z,88.45
2017-09-24T04:57:28.713Z,89.12
2017-09-24T04:58:28.603Z,89.12
2017-09-24T04:59:28.596Z,89.31
2017-09-24T05:00:28.899Z,89.31
2017-09-24T05:01:29.052Z,89.31
2017-09-24T05:02:28.585Z,89.31
2017-09-24T05:03:28.989Z,89.12
2017-09-24T05:04:28.880Z,89.21
2017-09-24T05:05:28.873Z,89.4
2017-09-24T05:06:28.560Z,89.02
2017-09-24T05:07:28.868Z,89.31
2017-09-24T05:08:28.855Z,89.21
2017-09-24T05:09:28.540Z,89.31
2017-09-24T05:10:29.048Z,89.4
2017-09-24T05:11:28.528Z,89.4
2017-09-24T05:12:28.673Z,89.5
2017-09-24T05:13:28.616Z,89.5
2017-09-24T05:14:28.511Z,89.4
2017-09-24T05:15:28.505Z,89.59
2017-09-24T05:16:28.533Z,89.69
2017-09-24T05:17:28.594Z,89.21
2017-09-24T05:18:28.486Z,89.4
2017-09-24T05:19:28.481Z,88.35
2017-09-24T05:20:28.787Z,89.21
2017-09-24T05:21:28.781Z,88.92
2017-09-24T05:22:28.774Z,89.21
2017-09-24T05:23:28.769Z,89.59
2017-09-24T05:24:28.868Z,89.69
2017-09-24T05:25:28.756Z,90.26
2017-09-24T05:26:28.444Z,90.45
2017-09-24T05:27:28.439Z,90.45
2017-09-24T05:28:28.840Z,90.55
2017-09-24T05:29:28.734Z,90.45
2017-09-24T05:30:28.731Z,90.45
2017-09-24T05:31:28.724Z,90.64
2017-09-24T05:32:28.510Z,90.83
2017-09-24T05:33:28.715Z,90.64
2017-09-24T05:34:28.397Z,90.83
2017-09-24T05:35:28.392Z,91.02
2017-09-24T05:36:28.697Z,90.93
2017-09-24T05:37:28.694Z,90.83
2017-09-24T05:38:28.789Z,90.64
2017-09-24T05:39:28.370Z,90.55
2017-09-24T05:40:28.775Z,90.55
2017-09-24T05:41:28.670Z,90.73
2017-09-24T05:42:28.662Z,90.73
2017-09-24T05:43:28.445Z,90.64
2017-09-24T05:44:28.652Z,90.83
2017-09-24T05:45:28.649Z,90.64
2017-09-24T05:46:28.332Z,90.64
2017-09-24T05:47:28.637Z,90.93
2017-09-24T05:48:28.418Z,91.07
2017-09-24T05:49:28.312Z,90.78
2017-09-24T05:50:28.309Z,91.16
2017-09-24T05:51:28.303Z,91.07
2017-09-24T05:52:28.295Z,91.07
2017-09-24T05:53:28.291Z,90.59
2017-09-24T05:54:28.597Z,90.59
2017-09-24T05:55:28.689Z,90.97
2017-09-24T05:56:28.274Z,90.59
2017-09-24T05:57:28.369Z,90.88
2017-09-24T05:58:28.285Z,90.69
2017-09-24T05:59:28.570Z,90.97
2017-09-24T06:00:28.349Z,90.69
2017-09-24T06:01:28.549Z,90.97
2017-09-24T06:02:28.543Z,90.78
2017-09-24T06:03:28.330Z,90.5
2017-09-24T06:04:28.533Z,90.69
2017-09-24T06:05:28.219Z,90.88
2017-09-24T06:06:28.623Z,90.4
2017-09-24T06:07:28.209Z,90.4
2017-09-24T06:08:28.300Z,90.02
2017-09-24T06:09:28.504Z,90.59
2017-09-24T06:10:28.502Z,90.31
2017-09-24T06:11:28.333Z,90.69
2017-09-24T06:12:28.486Z,90.64
2017-09-24T06:13:28.483Z,90.55
2017-09-24T06:14:28.169Z,90.64
2017-09-24T06:15:28.161Z,91.21
2017-09-24T06:16:28.463Z,91.21
2017-09-24T06:17:28.462Z,90.69
2017-09-24T06:18:28.247Z,90.69
2017-09-24T06:19:28.141Z,91.55
2017-09-24T06:20:28.444Z,91.55
2017-09-24T06:21:28.438Z,90.69
2017-09-24T06:22:28.121Z,91.16
2017-09-24T06:23:28.428Z,91.07
2017-09-24T06:24:28.419Z,90.88
2017-09-24T06:25:28.516Z,91.07
2017-09-24T06:26:28.415Z,90.88
2017-09-24T06:27:28.095Z,90.88
2017-09-24T06:28:28.089Z,91.26
2017-09-24T06:29:28.085Z,91.07
2017-09-24T06:30:28.175Z,90.97
2017-09-24T06:31:28.072Z,91.55
2017-09-24T06:32:28.374Z,91.26
2017-09-24T06:33:28.368Z,91.36
2017-09-24T06:34:28.056Z,91.36
2017-09-24T06:35:28.358Z,91.26
2017-09-24T06:36:28.043Z,91.36
2017-09-24T06:37:28.360Z,91.55
2017-09-24T06:38:28.031Z,91.26
2017-09-24T06:39:28.334Z,91.36
2017-09-24T06:40:28.019Z,91.16
2017-09-24T06:41:28.328Z,91.36
2017-09-24T06:42:28.416Z,91.26
2017-09-24T06:43:28.153Z,91.16
2017-09-24T06:44:28.306Z,91.36
2017-09-24T06:45:28.303Z,91.26
2017-09-24T06:46:27.986Z,91.07
2017-09-24T06:47:28.180Z,90.88
2017-09-24T06:48:28.285Z,90.97
2017-09-24T06:49:28.278Z,90.78
2017-09-24T06:50:28.275Z,91.16
2017-09-24T06:51:28.274Z,91.16
2017-09-24T06:52:28.413Z,91.26
2017-09-24T06:53:28.262Z,91.26
2017-09-24T06:54:28.397Z,91.45
2017-09-24T06:55:28.251Z,91.5
2017-09-24T06:56:27.931Z,91.4
2017-09-24T06:57:28.333Z,91.5
2017-09-24T06:58:27.917Z,91.4
2017-09-24T06:59:27.914Z,91.21
2017-09-24T07:00:28.366Z,91.3
2017-09-24T07:01:27.900Z,91.21
2017-09-24T07:02:28.205Z,90.73
2017-09-24T07:03:28.199Z,91.3
2017-09-24T07:04:27.884Z,91.4
2017-09-24T07:05:27.876Z,91.3
2017-09-24T07:06:28.181Z,91.4
2017-09-24T07:07:28.018Z,91.3
2017-09-24T07:08:28.170Z,91.3
2017-09-24T07:09:27.857Z,91.3
2017-09-24T07:10:27.852Z,91.11
2017-09-24T07:11:27.845Z,91.3
2017-09-24T07:12:28.180Z,91.11
2017-09-24T07:13:28.142Z,91.3
2017-09-24T07:14:28.137Z,91.4
2017-09-24T07:15:28.134Z,91.59
2017-09-24T07:16:28.127Z,91.4
2017-09-24T07:17:27.811Z,91.69
2017-09-24T07:18:27.905Z,91.5
2017-09-24T07:19:28.053Z,91.5
2017-09-24T07:20:27.795Z,91.59
2017-09-24T07:21:28.098Z,91.11
2017-09-24T07:22:28.095Z,91.54
2017-09-24T07:23:28.086Z,91.35
2017-09-24T07:24:28.084Z,91.16
2017-09-24T07:25:28.084Z,91.45
2017-09-24T07:26:27.762Z,91.25
2017-09-24T07:27:27.755Z,91.35
2017-09-24T07:28:28.209Z,91.45
2017-09-24T07:29:27.746Z,91.35
2017-09-24T07:30:28.050Z,91.54
2017-09-24T07:31:28.045Z,91.45
2017-09-24T07:32:28.036Z,91.45
2017-09-24T07:33:27.872Z,91.49
2017-09-24T07:34:27.716Z,91.45
2017-09-24T07:35:28.025Z,91.54
2017-09-24T07:36:28.012Z,92.3
2017-09-24T07:37:28.008Z,92.11
2017-09-24T07:38:28.004Z,92.3
2017-09-24T07:39:28.105Z,92.4
2017-09-24T07:40:27.991Z,92.35
2017-09-24T07:41:28.087Z,92.21
2017-09-24T07:42:27.985Z,92.35
2017-09-24T07:43:27.977Z,92.45
2017-09-24T07:44:27.759Z,92.3
2017-09-24T07:45:27.655Z,92.11
2017-09-24T07:46:27.959Z,92.4
2017-09-24T07:47:28.055Z,93.02
2017-09-24T07:48:27.639Z,92.64
2017-09-24T07:49:27.940Z,92.35
2017-09-24T07:50:27.729Z,92.4
2017-09-24T07:51:28.031Z,92.64
2017-09-24T07:52:27.924Z,92.74
2017-09-24T07:53:27.709Z,92.74
2017-09-24T07:54:27.606Z,92.93
2017-09-24T07:55:27.750Z,92.83
2017-09-24T07:56:27.907Z,93.02
2017-09-24T07:57:27.588Z,93.02
2017-09-24T07:58:27.585Z,93.79
2017-09-24T07:59:27.887Z,93.31
2017-09-24T08:00:27.880Z,93.31
2017-09-24T08:01:27.573Z,93.02
2017-09-24T08:02:27.560Z,93.5
2017-09-24T08:03:27.868Z,93.5
2017-09-24T08:04:27.858Z,93.79
2017-09-24T08:05:27.852Z,93.31
2017-09-24T08:06:27.945Z,93.31
2017-09-24T08:07:27.531Z,93.21
2017-09-24T08:08:27.528Z,93.74
2017-09-24T08:09:27.831Z,92.74
2017-09-24T08:10:27.823Z,92.69
2017-09-24T08:11:27.663Z,92.88
2017-09-24T08:12:27.817Z,92.69
2017-09-24T08:13:27.913Z,92.3
2017-09-24T08:14:27.956Z,91.63
2017-09-24T08:15:27.798Z,91.63
2017-09-24T08:16:27.486Z,91.63
2017-09-24T08:17:27.792Z,91.63
2017-09-24T08:18:27.473Z,91.06
2017-09-24T08:19:27.570Z,91.44
2017-09-24T08:20:27.771Z,90.87
2017-09-24T08:21:27.769Z,90.77
2017-09-24T08:22:27.452Z,90.77
2017-09-24T08:23:27.756Z,91.06
2017-09-24T08:24:27.692Z,91.06
2017-09-24T08:25:27.434Z,91.16
2017-09-24T08:26:27.432Z,90.2
2017-09-24T08:27:27.430Z,90.67
2017-09-24T08:28:27.727Z,90.67
2017-09-24T08:29:27.411Z,90.58
2017-09-24T08:30:27.559Z,90.15
2017-09-24T08:31:27.403Z,90.34
2017-09-24T08:32:27.396Z,90.53
2017-09-24T08:33:27.393Z,89.95
2017-09-24T08:34:27.386Z,89.91
2017-09-24T08:35:27.687Z,89.95
2017-09-24T08:36:27.374Z,89.86
2017-09-24T08:37:27.368Z,89.58
2017-09-24T08:38:27.365Z,89.58
2017-09-24T08:39:27.356Z,89.76
2017-09-24T08:40:27.662Z,89.29
2017-09-24T08:41:27.657Z,89.48
2017-09-24T08:42:27.649Z,89
2017-09-24T08:43:27.747Z,89.09
2017-09-24T08:44:27.641Z,89
2017-09-24T08:45:27.633Z,88.81
2017-09-24T08:46:27.627Z,88.9
2017-09-24T08:47:27.625Z,88.33
2017-09-24T08:48:27.311Z,88.33
2017-09-24T08:49:27.303Z,88.33
2017-09-24T08:50:27.297Z,88.33
2017-09-24T08:51:27.293Z,87.99
2017-09-24T08:52:27.288Z,87.85
2017-09-24T08:53:27.282Z,87.8
2017-09-24T08:54:27.277Z,87.32
2017-09-24T08:55:27.582Z,87.03
2017-09-24T08:56:27.577Z,87.03
2017-09-24T08:57:27.265Z,86.74
2017-09-24T08:58:27.257Z,86.94
2017-09-24T08:59:27.251Z,85.98
2017-09-24T09:00:27.245Z,86.17
2017-09-24T09:01:27.241Z,86.27
2017-09-24T09:02:27.546Z,86.17
2017-09-24T09:03:27.230Z,86.08
2017-09-24T09:04:27.536Z,86.27
2017-09-24T09:05:27.219Z,86.08
2017-09-24T09:06:27.214Z,85.5
2017-09-24T09:07:27.208Z,85.88
2017-09-24T09:08:27.611Z,85.31
2017-09-24T09:09:27.608Z,85.02
2017-09-24T09:10:27.498Z,84.35
2017-09-24T09:11:27.186Z,84.35
2017-09-24T09:12:27.489Z,84.26
2017-09-24T09:13:27.484Z,83.97
2017-09-24T09:14:27.171Z,83.59
2017-09-24T09:15:27.165Z,83.97
2017-09-24T09:16:27.158Z,83.87
2017-09-24T09:17:27.154Z,84.64
2017-09-24T09:18:27.151Z,84.45
2017-09-24T09:19:27.456Z,84.45
2017-09-24T09:20:27.550Z,84.26
2017-09-24T09:21:27.134Z,84.26
2017-09-24T09:22:27.128Z,84.35
2017-09-24T09:23:27.429Z,84.35
2017-09-24T09:24:27.425Z,83.97
2017-09-24T09:25:27.572Z,84.55
2017-09-24T09:26:27.107Z,84.78
2017-09-24T09:27:27.411Z,84.58
2017-09-24T09:28:27.098Z,84.58
2017-09-24T09:29:27.092Z,84.49
2017-09-24T09:30:27.186Z,84.68
2017-09-24T09:31:27.178Z,84.78
2017-09-24T09:32:27.383Z,84.78
2017-09-24T09:33:27.380Z,84.55
2017-09-24T09:34:27.373Z,85.12
2017-09-24T09:35:27.371Z,85.16
2017-09-24T09:36:27.363Z,84.88
2017-09-24T09:37:27.507Z,85.25
2017-09-24T09:38:27.456Z,85.06
2017-09-24T09:39:27.038Z,85.35
2017-09-24T09:40:27.343Z,85.35
2017-09-24T09:41:27.334Z,85.35
2017-09-24T09:42:27.022Z,85.25
2017-09-24T09:43:27.021Z,85.54
2017-09-24T09:44:27.323Z,85.54
2017-09-24T09:45:27.323Z,85.25
2017-09-24T09:46:27.312Z,85.64
2017-09-24T09:47:26.994Z,85.64
2017-09-24T09:48:26.996Z,85.16
2017-09-24T09:49:26.984Z,85.54
2017-09-24T09:50:26.980Z,85.54
2017-09-24T09:51:26.977Z,85.06
2017-09-24T09:52:27.118Z,85.54
2017-09-24T09:53:27.271Z,85.35
2017-09-24T09:54:27.272Z,84.49
2017-09-24T09:55:27.263Z,84.53
2017-09-24T09:56:27.261Z,83.86
2017-09-24T09:57:27.093Z,83.67
2017-09-24T09:58:27.246Z,83.29
2017-09-24T09:59:26.933Z,83.04
2017-09-24T10:00:26.933Z,82.27
2017-09-24T10:01:27.229Z,82.27
2017-09-24T10:02:26.919Z,82.27
2017-09-24T10:03:26.914Z,82.18
2017-09-24T10:04:27.215Z,81.6
2017-09-24T10:05:26.902Z,81.89
2017-09-24T10:06:26.897Z,81.41
2017-09-24T10:07:26.919Z,81.41
2017-09-24T10:08:27.036Z,81.7
2017-09-24T10:09:26.880Z,81.7
2017-09-24T10:10:27.338Z,81.41
2017-09-24T10:11:26.871Z,81.22
2017-09-24T10:12:26.905Z,81.7
2017-09-24T10:13:26.961Z,81.7
2017-09-24T10:14:26.957Z,81.89
2017-09-24T10:15:27.311Z,81.89
2017-09-24T10:16:26.846Z,81.79
2017-09-24T10:17:26.840Z,81.79
2017-09-24T10:18:27.143Z,81.6
2017-09-24T10:19:27.140Z,81.22
2017-09-24T10:20:26.925Z,81.31
2017-09-24T10:21:26.819Z,81.7
2017-09-24T10:22:26.817Z,81.6
2017-09-24T10:23:26.809Z,81.51
2017-09-24T10:24:27.115Z,81.41
2017-09-24T10:25:26.948Z,81.41
2017-09-24T10:26:27.103Z,81.41
2017-09-24T10:27:27.101Z,81.12
2017-09-24T10:28:27.096Z,81.51
2017-09-24T10:29:26.881Z,81.31
2017-09-24T10:30:27.084Z,81.12
2017-09-24T10:31:27.085Z,81.31
2017-09-24T10:32:26.765Z,81.02
2017-09-24T10:33:26.761Z,81.02
2017-09-24T10:34:26.755Z,80.74
2017-09-24T10:35:26.749Z,80.74
2017-09-24T10:36:27.092Z,81.6
2017-09-24T10:37:26.839Z,80.83
2017-09-24T10:38:26.736Z,81.31
2017-09-24T10:39:26.727Z,81.02
2017-09-24T10:40:26.725Z,80.74
2017-09-24T10:41:27.127Z,80.55
2017-09-24T10:42:26.714Z,80.83
2017-09-24T10:43:26.710Z,80.78
2017-09-24T10:44:27.011Z,80.87
2017-09-24T10:45:27.115Z,80.2
2017-09-24T10:46:26.694Z,79.91
2017-09-24T10:47:26.689Z,79.44
2017-09-24T10:48:26.684Z,79.44
2017-09-24T10:49:26.828Z,79.44
2017-09-24T10:50:26.673Z,79.53
2017-09-24T10:51:26.985Z,79.63
2017-09-24T10:52:27.173Z,79.63
2017-09-24T10:53:26.659Z,80.07
2017-09-24T10:54:26.651Z,79.91
2017-09-24T10:55:26.956Z,80.4
2017-09-24T10:56:26.644Z,80.26
2017-09-24T10:57:26.639Z,80.16
2017-09-24T10:58:26.632Z,80.07
2017-09-24T10:59:26.934Z,80.45
2017-09-24T11:00:26.622Z,80.4
2017-09-24T11:01:27.028Z,79.91
2017-09-24T11:02:27.024Z,79.72
2017-09-24T11:03:26.708Z,79.82
2017-09-24T11:04:27.061Z,79.63
2017-09-24T11:05:26.597Z,79.44
2017-09-24T11:06:26.591Z,79.34
2017-09-24T11:07:26.901Z,79.53
2017-09-24T11:08:26.584Z,78.96
2017-09-24T11:09:26.578Z,78.77
2017-09-24T11:10:26.571Z,78.77
2017-09-24T11:11:26.569Z,78.57
2017-09-24T11:12:26.660Z,78.57
2017-09-24T11:13:26.870Z,78.52
2017-09-24T11:14:26.865Z,78.57
2017-09-24T11:15:26.549Z,78.42
2017-09-24T11:16:26.541Z,78.32
2017-09-24T11:17:26.639Z,78.09
2017-09-24T11:18:26.681Z,78
2017-09-24T11:19:26.527Z,77.71
2017-09-24T11:20:26.522Z,77.8
2017-09-24T11:21:26.670Z,77.61
2017-09-24T11:22:26.515Z,78.28
2017-09-24T11:23:26.819Z,77.9
2017-09-24T11:24:26.502Z,78.09
2017-09-24T11:25:26.497Z,77.46
2017-09-24T11:26:26.494Z,77.61
2017-09-24T11:27:26.948Z,77.8
2017-09-24T11:28:26.484Z,77.84
2017-09-24T11:29:26.477Z,77.46
2017-09-24T11:30:26.472Z,76.98
2017-09-24T11:31:26.466Z,77.08
2017-09-24T11:32:26.462Z,76.59
2017-09-24T11:33:26.867Z,76.59
2017-09-24T11:34:26.764Z,76.79
2017-09-24T11:35:26.452Z,76.5
2017-09-24T11:36:26.443Z,76.12
2017-09-24T11:37:26.749Z,76.02
2017-09-24T11:38:26.432Z,76.02
2017-09-24T11:39:26.426Z,76.31
2017-09-24T11:40:26.575Z,75.92
2017-09-24T11:41:26.418Z,75.57
2017-09-24T11:42:26.415Z,76.15
2017-09-24T11:43:26.717Z,75.29
2017-09-24T11:44:26.713Z,75.67
2017-09-24T11:45:26.711Z,75.1
2017-09-24T11:46:26.707Z,75
2017-09-24T11:47:26.390Z,74.23
2017-09-24T11:48:26.486Z,74.71
2017-09-24T11:49:26.378Z,74.04
2017-09-24T11:50:26.524Z,73.79
2017-09-24T11:51:26.777Z,73.21
2017-09-24T11:52:26.682Z,73.02
2017-09-24T11:53:26.362Z,73.11
2017-09-24T11:54:26.665Z,72.34
2017-09-24T11:55:26.452Z,72.44
2017-09-24T11:56:26.544Z,72.73
2017-09-24T11:57:26.341Z,72.25
2017-09-24T11:58:26.338Z,72.44
2017-09-24T11:59:26.651Z,71.87
2017-09-24T12:00:26.634Z,72.19
2017-09-24T12:01:26.781Z,72.29
2017-09-24T12:02:26.318Z,72
2017-09-24T12:03:26.314Z,71.61
2017-09-24T12:04:26.619Z,71.81
2017-09-24T12:05:26.306Z,71.52
2017-09-24T12:06:26.612Z,70.94
2017-09-24T12:07:26.606Z,70.84
2017-09-24T12:08:26.599Z,70.84
2017-09-24T12:09:26.591Z,70.84
2017-09-24T12:10:26.281Z,70.75
2017-09-24T12:11:26.275Z,70.84
2017-09-24T12:12:26.582Z,70.37
2017-09-24T12:13:26.575Z,69.69
2017-09-24T12:14:26.261Z,69.98
2017-09-24T12:15:26.566Z,70.17
2017-09-24T12:16:26.250Z,70.46
2017-09-24T12:17:26.250Z,70.3
2017-09-24T12:18:26.552Z,70.3
2017-09-24T12:19:26.546Z,70.27
2017-09-24T12:20:26.333Z,70.56
2017-09-24T12:21:26.538Z,70.56
2017-09-24T12:22:26.223Z,71.04
2017-09-24T12:23:26.219Z,71.04
2017-09-24T12:24:26.524Z,71.04
2017-09-24T12:25:26.518Z,70.59
2017-09-24T12:26:26.616Z,69.92
2017-09-24T12:27:26.202Z,69.34
2017-09-24T12:28:26.196Z,69.06
2017-09-24T12:29:26.193Z,68.09
2017-09-24T12:30:26.187Z,68.09
2017-09-24T12:31:26.690Z,68.09
2017-09-24T12:32:26.176Z,67.8
2017-09-24T12:33:26.513Z,67.71
2017-09-24T12:34:26.167Z,67.61
2017-09-24T12:35:26.572Z,68.19
2017-09-24T12:36:26.566Z,68.48
2017-09-24T12:37:26.154Z,68.38
2017-09-24T12:38:26.151Z,68.09
2017-09-24T12:39:26.556Z,67.9
2017-09-24T12:40:26.450Z,67.99
2017-09-24T12:41:26.544Z,67.99
2017-09-24T12:42:26.131Z,67.42
2017-09-24T12:43:26.129Z,67.42
2017-09-24T12:44:26.432Z,67.51
2017-09-24T12:45:26.429Z,67.03
2017-09-24T12:46:26.114Z,67.22
2017-09-24T12:47:26.107Z,67.13
2017-09-24T12:48:26.101Z,66.65
2017-09-24T12:49:26.408Z,66.74
2017-09-24T12:50:26.093Z,66.65
2017-09-24T12:51:26.499Z,66.2
2017-09-24T12:52:26.090Z,66.17
2017-09-24T12:53:26.082Z,66.3
2017-09-24T12:54:26.383Z,65.91
2017-09-24T12:55:26.071Z,65.53